createdAt,value
2019-03-16T00:02:18.252Z,15.87
2019-03-16T00:04:45.305Z,16.37
2019-03-16T00:07:12.349Z,16.90
2019-03-16T00:09:39.396Z,17.20
2019-03-16T00:12:06.392Z,19.50
2019-03-16T00:14:34.415Z,17.27
2019-03-16T00:17:01.463Z,17.00
2019-03-16T00:19:28.519Z,17.77
2019-03-16T00:21:55.565Z,16.90
2019-03-16T00:24:22.609Z,19.13
2019-03-16T00:26:50.328Z,17.80
2019-03-16T00:29:17.321Z,19.07
2019-03-16T00:31:44.411Z,18.33
2019-03-16T00:34:11.369Z,18.47
2019-03-16T00:36:38.364Z,19.97
2019-03-16T00:39:05.422Z,20.37
2019-03-16T00:41:32.462Z,20.03
2019-03-16T00:43:59.509Z,18.97
2019-03-16T00:46:26.564Z,17.10
2019-03-16T00:48:53.608Z,18.77
2019-03-16T00:51:20.655Z,19.53
2019-03-16T00:53:47.711Z,18.83
2019-03-16T00:56:14.704Z,17.60
2019-03-16T00:58:41.705Z,17.77
2019-03-16T01:01:08.855Z,18.20
2019-03-16T01:03:35.899Z,18.97
2019-03-16T01:06:02.946Z,19.50
2019-03-16T01:08:29.949Z,14.80
2019-03-16T01:10:57.044Z,18.67
2019-03-16T01:13:24.113Z,19.47
2019-03-16T01:15:51.147Z,16.43
2019-03-16T01:18:18.191Z,20.70
2019-03-16T01:20:45.238Z,20.27
2019-03-16T01:23:12.292Z,19.93
2019-03-16T01:25:39.336Z,19.23
2019-03-16T01:28:06.386Z,18.10
2019-03-16T01:30:33.439Z,26.48
2019-03-16T01:33:00.481Z,19.80
2019-03-16T01:35:27.529Z,21.13
2019-03-16T01:37:54.584Z,17.70
2019-03-16T01:40:21.734Z,18.67
2019-03-16T01:42:48.779Z,21.03
2019-03-16T01:45:15.825Z,19.73
2019-03-16T01:47:42.879Z,20.33
2019-03-16T01:50:09.927Z,20.10
2019-03-16T01:52:38.507Z,18.63
2019-03-16T01:55:05.659Z,18.63
2019-03-16T01:57:32.711Z,18.00
2019-03-16T02:00:00.988Z,17.77
2019-03-16T02:02:28.032Z,17.03
2019-03-16T02:04:55.087Z,19.27
2019-03-16T02:07:22.545Z,18.17
2019-03-16T02:09:49.588Z,18.80
2019-03-16T02:12:16.738Z,19.07
2019-03-16T02:14:44.356Z,19.67
2019-03-16T02:17:11.456Z,16.23
2019-03-16T02:19:38.514Z,19.17
2019-03-16T02:22:05.960Z,16.50
2019-03-16T02:24:37.516Z,17.30
2019-03-16T02:27:06.102Z,18.87
2019-03-16T02:29:33.148Z,18.27
2019-03-16T02:32:00.213Z,19.30
2019-03-16T02:34:35.435Z,16.57
2019-03-16T02:37:02.492Z,18.73
2019-03-16T02:39:29.530Z,17.27
2019-03-16T02:41:56.583Z,17.77
2019-03-16T02:44:23.637Z,16.60
2019-03-16T02:46:50.678Z,17.93
2019-03-16T02:49:17.725Z,16.37
2019-03-16T02:51:44.784Z,17.03
2019-03-16T02:54:11.824Z,15.63
2019-03-16T02:56:39.926Z,18.17
2019-03-16T02:59:06.944Z,16.70
2019-03-16T03:01:33.997Z,17.30
2019-03-16T03:04:00.988Z,17.83
2019-03-16T03:06:27.997Z,16.40
2019-03-16T03:08:55.036Z,17.00
2019-03-16T03:11:22.083Z,15.77
2019-03-16T03:13:49.138Z,15.93
2019-03-16T03:16:16.693Z,17.10
2019-03-16T03:18:43.747Z,17.03
2019-03-16T03:21:10.805Z,15.60
2019-03-16T03:23:37.844Z,15.63
2019-03-16T03:26:04.893Z,17.53
2019-03-16T03:28:31.935Z,17.60
2019-03-16T03:30:58.993Z,17.47
2019-03-16T03:33:58.948Z,16.23
2019-03-16T03:36:33.646Z,15.40
2019-03-16T03:39:04.981Z,15.13
2019-03-16T03:41:32.036Z,13.17
2019-03-16T03:43:59.493Z,16.50
2019-03-16T03:46:26.546Z,16.57
2019-03-16T03:48:53.585Z,16.03
2019-03-16T03:51:20.648Z,15.87
2019-03-16T03:53:52.188Z,15.13
2019-03-16T03:56:19.186Z,16.13
2019-03-16T03:58:51.233Z,16.50
2019-03-16T04:04:15.848Z,16.03
2019-03-16T04:06:36.616Z,15.20
2019-03-16T04:09:03.874Z,14.70
2019-03-16T04:11:31.640Z,14.77
2019-03-16T04:13:59.405Z,15.60
2019-03-16T04:16:26.447Z,13.80
2019-03-16T04:18:53.500Z,13.77
2019-03-16T04:21:20.551Z,10.23
2019-03-16T04:23:47.594Z,12.63
2019-03-16T04:26:14.641Z,14.43
2019-03-16T04:28:41.695Z,12.70
2019-03-16T04:31:08.739Z,12.33
2019-03-16T04:33:35.792Z,14.57
2019-03-16T04:36:02.844Z,12.97
2019-03-16T04:38:29.893Z,13.63
2019-03-16T04:40:57.450Z,13.93
2019-03-16T04:43:24.447Z,15.07
2019-03-16T04:45:51.444Z,14.57
2019-03-16T04:48:18.488Z,13.63
2019-03-16T04:50:45.538Z,14.03
2019-03-16T04:53:12.604Z,13.77
2019-03-16T04:55:39.635Z,12.73
2019-03-16T04:58:06.682Z,12.47
2019-03-16T05:00:33.736Z,13.77
2019-03-16T05:03:00.779Z,13.47
2019-03-16T05:05:27.829Z,12.17
2019-03-16T05:07:54.882Z,12.30
2019-03-16T05:10:21.926Z,14.27
2019-03-16T05:12:48.972Z,12.43
2019-03-16T05:15:16.741Z,12.40
2019-03-16T05:17:43.792Z,12.27
2019-03-16T05:20:10.791Z,12.20
2019-03-16T05:22:37.894Z,10.80
2019-03-16T05:25:04.945Z,11.60
2019-03-16T05:27:32.291Z,9.67
2019-03-16T05:29:59.343Z,10.27
2019-03-16T05:32:26.492Z,10.00
2019-03-16T05:34:56.747Z,10.70
2019-03-16T05:37:21.002Z,10.33
2019-03-16T05:39:48.044Z,9.73
2019-03-16T05:42:15.091Z,10.97
2019-03-16T05:44:42.089Z,9.80
2019-03-16T05:47:09.190Z,9.47
2019-03-16T05:49:36.196Z,9.30
2019-03-16T05:52:03.300Z,9.20
2019-03-16T05:54:30.282Z,9.67
2019-03-16T05:56:57.292Z,10.00
2019-03-16T05:59:24.842Z,7.90
2019-03-16T06:01:51.915Z,6.50
2019-03-16T06:04:18.953Z,8.83
2019-03-16T06:06:48.295Z,8.33
2019-03-16T06:09:15.807Z,9.20
2019-03-16T06:11:44.976Z,8.00
2019-03-16T06:14:12.048Z,7.53
2019-03-16T06:16:39.102Z,9.43
2019-03-16T06:19:06.253Z,9.07
2019-03-16T06:21:33.404Z,9.70
2019-03-16T06:24:00.555Z,8.20
2019-03-16T06:26:27.626Z,9.30
2019-03-16T06:28:54.762Z,10.33
2019-03-16T06:31:21.798Z,9.93
2019-03-16T06:33:48.852Z,8.63
2019-03-16T06:36:15.955Z,9.07
2019-03-16T06:38:43.053Z,7.83
2019-03-16T06:41:11.841Z,7.60
2019-03-16T06:43:50.165Z,8.57
2019-03-16T06:46:30.093Z,8.57
2019-03-16T06:48:57.148Z,8.63
2019-03-16T06:51:24.302Z,6.07
2019-03-16T06:53:51.347Z,9.47
2019-03-16T06:56:18.297Z,9.40
2019-03-16T06:58:45.342Z,8.97
2019-03-16T07:01:12.395Z,9.43
2019-03-16T07:03:39.440Z,7.77
2019-03-16T07:06:08.035Z,10.20
2019-03-16T07:08:35.077Z,12.40
2019-03-16T07:11:02.120Z,8.83
2019-03-16T07:13:29.168Z,9.57
2019-03-16T07:15:56.222Z,8.27
2019-03-16T07:18:23.472Z,5.63
2019-03-16T07:20:50.723Z,7.40
2019-03-16T07:23:17.808Z,5.90
2019-03-16T07:25:45.639Z,4.97
2019-03-16T07:28:12.647Z,7.17
2019-03-16T07:30:46.837Z,8.77
2019-03-16T07:33:13.959Z,8.53
2019-03-16T07:35:41.003Z,9.83
2019-03-16T07:38:08.262Z,6.43
2019-03-16T07:40:35.688Z,6.53
2019-03-16T07:43:11.193Z,8.80
2019-03-16T07:45:38.315Z,8.70
2019-03-16T07:48:05.478Z,4.47
2019-03-16T07:50:32.521Z,9.70
2019-03-16T07:52:59.559Z,12.07
2019-03-16T07:55:26.616Z,4.90
2019-03-16T07:57:53.655Z,7.87
2019-03-16T08:00:20.704Z,7.83
2019-03-16T08:02:47.763Z,6.23
2019-03-16T08:05:18.555Z,9.53
2019-03-16T08:07:41.953Z,4.03
2019-03-16T08:10:09.011Z,7.97
2019-03-16T08:12:36.083Z,11.13
2019-03-16T08:15:03.147Z,11.63
2019-03-16T08:17:31.072Z,8.07
2019-03-16T08:19:58.139Z,1.40
2019-03-16T08:22:50.135Z,6.70
2019-03-16T08:25:19.250Z,8.77
2019-03-16T08:27:54.143Z,9.33
2019-03-16T08:30:15.700Z,11.10
2019-03-16T08:32:42.760Z,8.63
2019-03-16T08:35:09.908Z,6.60
2019-03-16T08:37:37.563Z,11.67
2019-03-16T08:40:05.531Z,10.60
2019-03-16T08:42:32.586Z,11.40
2019-03-16T08:44:59.630Z,12.77
2019-03-16T08:47:26.678Z,12.40
2019-03-16T08:49:54.039Z,11.90
2019-03-16T08:52:21.049Z,13.77
2019-03-16T08:54:48.847Z,12.77
2019-03-16T08:57:15.902Z,13.40
2019-03-16T08:59:43.047Z,11.73
2019-03-16T09:02:10.342Z,11.53
2019-03-16T09:04:37.451Z,12.17
2019-03-16T09:07:04.499Z,11.90
2019-03-16T09:09:32.060Z,11.13
2019-03-16T09:11:59.108Z,11.90
2019-03-16T09:14:26.163Z,10.43
2019-03-16T09:16:54.024Z,10.70
2019-03-16T09:19:21.078Z,11.73
2019-03-16T09:21:48.541Z,11.63
2019-03-16T09:24:15.689Z,11.23
2019-03-16T09:26:42.731Z,13.50
2019-03-16T09:29:14.863Z,12.93
2019-03-16T09:31:37.649Z,10.77
2019-03-16T09:34:04.785Z,9.60
2019-03-16T09:36:31.950Z,9.23
2019-03-16T09:38:59.104Z,9.40
2019-03-16T09:41:26.154Z,8.20
2019-03-16T09:43:53.510Z,8.57
2019-03-16T09:46:20.553Z,4.40
2019-03-16T09:48:47.610Z,6.13
2019-03-16T09:51:14.655Z,6.40
2019-03-16T09:53:41.698Z,3.53
2019-03-16T09:56:08.707Z,5.00
2019-03-16T09:58:36.512Z,5.17
2019-03-16T10:01:03.566Z,3.97
2019-03-16T10:03:30.612Z,5.07
2019-03-16T10:05:57.658Z,5.70
2019-03-16T10:08:24.657Z,6.27
2019-03-16T10:10:51.758Z,4.87
2019-03-16T10:13:19.094Z,5.83
2019-03-16T10:15:46.165Z,6.10
2019-03-16T10:18:15.296Z,5.63
2019-03-16T10:20:42.266Z,6.87
2019-03-16T10:23:09.353Z,5.70
2019-03-16T10:25:36.403Z,6.00
2019-03-16T10:28:04.069Z,5.93
2019-03-16T10:30:32.956Z,5.90
2019-03-16T10:33:00.107Z,5.77
2019-03-16T10:35:27.258Z,5.47
2019-03-16T10:37:54.306Z,5.77
2019-03-16T10:40:21.361Z,5.00
2019-03-16T10:42:48.916Z,3.90
2019-03-16T10:45:16.074Z,4.53
2019-03-16T10:47:43.142Z,6.30
2019-03-16T10:50:13.192Z,13.20
2019-03-16T10:52:40.410Z,5.43
2019-03-16T10:55:07.650Z,5.50
2019-03-16T10:57:34.996Z,5.30
2019-03-16T11:00:02.045Z,4.83
2019-03-16T11:02:29.196Z,5.17
2019-03-16T11:04:56.301Z,5.13
2019-03-16T11:07:23.295Z,5.73
2019-03-16T11:09:50.297Z,4.60
2019-03-16T11:12:18.011Z,4.93
2019-03-16T11:14:48.191Z,4.53
2019-03-16T11:17:15.788Z,4.87
2019-03-16T11:19:42.888Z,4.70
2019-03-16T11:22:11.733Z,4.70
2019-03-16T11:24:38.878Z,4.33
2019-03-16T11:27:05.929Z,5.00
2019-03-16T11:29:32.986Z,5.53
2019-03-16T11:32:00.153Z,4.53
2019-03-16T11:34:27.995Z,4.70
2019-03-16T11:36:55.149Z,4.90
2019-03-16T11:39:22.210Z,4.47
2019-03-16T11:41:49.250Z,5.05
2019-03-16T11:44:16.362Z,4.43
2019-03-16T11:46:43.346Z,6.30
2019-03-16T11:49:10.389Z,4.93
2019-03-16T11:51:39.404Z,5.07
2019-03-16T11:54:06.641Z,3.90
2019-03-16T11:56:33.688Z,4.00
2019-03-16T11:59:00.836Z,3.30
2019-03-16T12:01:27.884Z,5.07
2019-03-16T12:03:55.045Z,4.57
2019-03-16T12:06:22.264Z,4.63
2019-03-16T12:08:49.441Z,5.03
2019-03-16T12:11:16.527Z,4.83
2019-03-16T12:13:44.068Z,4.00
2019-03-16T12:16:10.790Z,4.90
2019-03-16T12:18:37.845Z,4.37
2019-03-16T12:21:09.087Z,4.77
2019-03-16T12:23:36.139Z,5.00
2019-03-16T12:26:03.187Z,4.53
2019-03-16T12:28:30.539Z,5.00
2019-03-16T12:30:57.593Z,4.80
2019-03-16T12:33:24.637Z,4.00
2019-03-16T12:35:52.095Z,4.78
2019-03-16T12:38:19.143Z,5.03
2019-03-16T12:40:47.164Z,4.40
2019-03-16T12:43:17.392Z,4.93
2019-03-16T12:45:44.385Z,5.30
2019-03-16T12:48:11.433Z,4.30
2019-03-16T12:50:38.487Z,4.95
2019-03-16T12:53:05.429Z,4.47
2019-03-16T12:55:32.580Z,5.00
2019-03-16T12:57:59.636Z,5.03
2019-03-16T13:00:26.676Z,5.03
2019-03-16T13:02:53.838Z,4.85
2019-03-16T13:05:21.192Z,4.75
2019-03-16T13:07:48.209Z,6.20
2019-03-16T13:10:16.003Z,6.40
2019-03-16T13:12:43.256Z,6.40
2019-03-16T13:15:10.309Z,5.60
2019-03-16T13:17:38.167Z,5.22
2019-03-16T13:20:05.986Z,5.32
2019-03-16T13:22:59.274Z,5.25
2019-03-16T13:25:43.436Z,6.30
2019-03-16T13:28:35.696Z,6.03
2019-03-16T13:31:14.920Z,6.87
2019-03-16T13:33:41.982Z,6.50
2019-03-16T13:36:28.682Z,6.60
2019-03-16T13:38:55.734Z,6.85
2019-03-16T13:41:22.675Z,7.03
2019-03-16T13:43:49.881Z,6.72
2019-03-16T13:46:16.978Z,7.32
2019-03-16T13:48:44.128Z,7.55
2019-03-16T13:51:11.181Z,8.27
2019-03-16T13:53:38.333Z,8.85
2019-03-16T13:56:05.493Z,8.80
2019-03-16T13:58:32.536Z,8.70
2019-03-16T14:00:59.577Z,7.28
2019-03-16T14:03:28.673Z,8.23
2019-03-16T14:05:55.933Z,8.38
2019-03-16T14:08:22.978Z,7.55
2019-03-16T14:10:50.025Z,9.50
2019-03-16T14:13:19.636Z,9.43
2019-03-16T14:15:46.629Z,9.63
2019-03-16T14:18:13.844Z,10.18
2019-03-16T14:20:40.831Z,8.85
2019-03-16T14:23:07.834Z,8.45
2019-03-16T14:25:34.936Z,6.95
2019-03-16T14:28:05.091Z,7.82
2019-03-16T14:30:41.111Z,6.55
2019-03-16T14:32:59.297Z,5.50
2019-03-16T14:35:26.448Z,6.10
2019-03-16T14:37:53.501Z,4.65
2019-03-16T14:40:20.570Z,3.03
2019-03-16T14:42:47.700Z,3.72
2019-03-16T14:45:15.051Z,4.60
2019-03-16T14:47:42.722Z,4.05
2019-03-16T14:50:13.849Z,5.03
2019-03-16T14:52:39.987Z,4.57
2019-03-16T14:55:07.035Z,4.70
2019-03-16T14:57:34.187Z,4.90
2019-03-16T15:00:01.242Z,4.50
2019-03-16T15:02:51.926Z,5.25
2019-03-16T15:05:18.986Z,4.30
2019-03-16T15:07:49.422Z,3.80
2019-03-16T15:10:13.352Z,4.37
2019-03-16T15:12:40.441Z,4.72
2019-03-16T15:15:08.417Z,4.55
2019-03-16T15:17:35.464Z,6.22
2019-03-16T15:20:02.610Z,4.70
2019-03-16T15:22:29.628Z,7.03
2019-03-16T15:24:56.610Z,6.43
2019-03-16T15:27:23.614Z,5.80
2019-03-16T15:29:50.600Z,5.35
2019-03-16T15:32:17.649Z,4.70
2019-03-16T15:34:44.645Z,5.70
2019-03-16T15:37:11.645Z,4.95
2019-03-16T15:39:38.798Z,4.70
2019-03-16T15:42:05.848Z,5.78
2019-03-16T15:44:32.862Z,3.90
2019-03-16T15:46:59.941Z,6.40
2019-03-16T15:49:26.993Z,7.20
2019-03-16T15:51:58.350Z,6.57
2019-03-16T15:54:25.388Z,6.60
2019-03-16T15:56:52.441Z,7.55
2019-03-16T15:59:21.225Z,6.65
2019-03-16T16:01:48.289Z,7.25
2019-03-16T16:04:15.529Z,5.87
2019-03-16T16:06:42.596Z,6.68
2019-03-16T16:09:09.744Z,7.18
2019-03-16T16:11:38.726Z,6.12
2019-03-16T16:14:06.284Z,6.25
2019-03-16T16:16:33.337Z,6.97
2019-03-16T16:19:00.485Z,6.10
2019-03-16T16:21:27.530Z,7.25
2019-03-16T16:23:54.581Z,7.57
2019-03-16T16:26:21.633Z,6.90
2019-03-16T16:29:13.078Z,7.10
2019-03-16T16:31:40.121Z,6.07
2019-03-16T16:34:07.575Z,7.05
2019-03-16T16:36:34.816Z,6.60
2019-03-16T16:39:01.857Z,6.37
2019-03-16T16:41:28.905Z,6.62
2019-03-16T16:43:55.969Z,6.03
2019-03-16T16:46:23.002Z,5.70
2019-03-16T16:48:50.061Z,5.78
2019-03-16T16:51:17.719Z,5.30
2019-03-16T16:53:44.763Z,5.87
2019-03-16T16:56:13.347Z,5.77
2019-03-16T16:58:40.401Z,6.10
2019-03-16T17:01:10.294Z,5.43
2019-03-16T17:03:37.317Z,5.40
2019-03-16T17:06:05.088Z,6.10
2019-03-16T17:08:32.129Z,5.40
2019-03-16T17:10:59.228Z,5.73
2019-03-16T17:13:26.292Z,4.70
2019-03-16T17:15:53.318Z,5.27
2019-03-16T17:18:20.778Z,5.20
2019-03-16T17:20:47.836Z,5.47
2019-03-16T17:23:17.093Z,6.15
2019-03-16T17:25:44.145Z,5.82
2019-03-16T17:28:11.228Z,6.00
2019-03-16T17:30:38.220Z,5.50
2019-03-16T17:33:05.431Z,5.47
2019-03-16T17:35:32.473Z,5.28
2019-03-16T17:37:59.522Z,5.55
2019-03-16T17:40:40.825Z,5.93
2019-03-16T17:43:08.475Z,5.87
2019-03-16T17:45:39.854Z,6.35
2019-03-16T17:48:07.020Z,6.70
2019-03-16T17:50:34.120Z,6.18
2019-03-16T17:53:01.170Z,6.35
2019-03-16T17:55:30.778Z,5.97
2019-03-16T17:57:57.830Z,5.82
2019-03-16T18:00:26.921Z,6.47
2019-03-16T18:02:54.181Z,6.20
2019-03-16T18:05:21.325Z,6.05
2019-03-16T18:08:12.604Z,7.03
2019-03-16T18:10:40.789Z,5.60
2019-03-16T18:13:11.213Z,5.97
2019-03-16T18:15:37.685Z,5.83
2019-03-16T18:18:04.933Z,5.80
2019-03-16T18:20:32.241Z,6.47
2019-03-16T18:22:59.240Z,6.60
2019-03-16T18:25:26.797Z,6.43
2019-03-16T18:27:54.115Z,7.23
2019-03-16T18:30:23.050Z,7.47
2019-03-16T18:32:52.810Z,7.67
2019-03-16T18:35:19.908Z,7.30
2019-03-16T18:37:46.959Z,7.17
2019-03-16T18:40:16.208Z,7.50
2019-03-16T18:42:44.851Z,7.27
2019-03-16T18:45:20.598Z,7.43
2019-03-16T18:47:53.183Z,7.50
2019-03-16T19:56:37.980Z,10.27
2019-03-16T22:06:21.829Z,10.57
2019-03-16T22:08:53.408Z,11.33
2019-03-16T22:11:21.273Z,10.17
2019-03-16T22:13:52.420Z,9.90
2019-03-16T22:16:21.827Z,11.03
2019-03-16T22:18:49.178Z,10.90
2019-03-16T22:21:17.050Z,10.33
2019-03-16T22:23:50.040Z,12.53
2019-03-16T22:31:38.526Z,16.60
2019-03-16T22:34:05.679Z,11.57
2019-03-16T22:36:33.231Z,14.20
2019-03-16T22:39:00.284Z,14.93
2019-03-16T22:41:30.509Z,13.00
2019-03-16T22:43:57.551Z,12.57
2019-03-16T22:46:24.675Z,14.00
2019-03-16T22:48:52.676Z,11.30
2019-03-16T22:51:19.731Z,12.23
2019-03-16T22:56:38.089Z,11.10
2019-03-16T22:59:05.141Z,11.77
2019-03-16T23:01:32.804Z,11.63
2019-03-16T23:04:06.915Z,13.00
2019-03-16T23:06:28.348Z,10.70
2019-03-16T23:08:55.687Z,11.17
2019-03-16T23:11:22.759Z,11.63
2019-03-16T23:13:52.240Z,9.87
2019-03-16T23:16:20.277Z,11.43
2019-03-16T23:18:47.361Z,11.13
2019-03-16T23:21:14.558Z,11.93
2019-03-16T23:23:42.561Z,11.43
2019-03-16T23:26:08.717Z,12.30
2019-03-16T23:28:36.176Z,11.60
2019-03-16T23:31:03.632Z,11.30
2019-03-16T23:33:30.677Z,11.67
2019-03-16T23:35:58.324Z,11.17
2019-03-16T23:38:25.900Z,11.00
2019-03-16T23:40:52.949Z,11.00
2019-03-16T23:43:20.002Z,10.50
2019-03-16T23:45:47.082Z,11.97
2019-03-16T23:48:14.094Z,11.07
2019-03-16T23:50:41.456Z,12.20
2019-03-16T23:53:08.460Z,10.13
2019-03-16T23:55:35.683Z,10.50
2019-03-16T23:58:02.702Z,9.93
